Time;durP1;ratioP1;P1;durP2;ratioP2;P2;SDS_P1;SDS_P2;PMS_P1;PMS_P2;Temp;Humidity;BMP_temperature;BMP_pressure;BME280_temperature;BME280_humidity;BME280_pressure;Samples;Min_cycle;Max_cycle;Signal;HPM_P1;HPM_P2
2023/08/06 00:01:22;;;;;;;2.90;2.70;;;16.50;99.90;;;16.29;83.54;100111.72;5053550;28;20213;-71
2023/08/06 00:03:54;;;;;;;6.13;3.50;;;16.50;99.90;;;16.31;83.71;100106.94;5053371;28;20313;-71
2023/08/06 00:06:27;;;;;;;4.70;3.80;;;16.50;99.90;;;16.28;84.05;100115.44;5053021;28;20580;-70
2023/08/06 00:09:00;;;;;;;3.97;3.57;;;16.50;99.90;;;16.20;84.55;100108.41;5053610;28;20195;-70
2023/08/06 00:11:32;;;;;;;4.00;3.70;;;16.40;99.90;;;16.23;83.82;100109.88;5053420;28;20194;-70
2023/08/06 00:14:04;;;;;;;5.17;3.80;;;16.40;99.90;;;16.21;84.17;100106.53;5053566;28;20308;-70
2023/08/06 00:16:36;;;;;;;5.37;4.60;;;16.40;99.90;;;16.21;84.06;100104.69;5053399;28;20222;-71
2023/08/06 00:19:08;;;;;;;6.57;4.20;;;16.40;99.90;;;16.23;84.81;100102.56;5053350;28;20194;-71
2023/08/06 00:21:40;;;;;;;4.73;4.03;;;16.50;99.90;;;16.23;84.70;100099.06;5053368;28;20197;-70
2023/08/06 00:24:13;;;;;;;5.47;4.07;;;16.40;99.90;;;16.21;84.58;100088.47;5052941;28;20729;-71
2023/08/06 00:26:45;;;;;;;6.43;3.87;;;16.40;99.90;;;16.20;84.74;100083.25;5053228;28;20276;-71
2023/08/06 00:29:17;;;;;;;4.10;3.67;;;16.40;99.90;;;16.17;84.99;100086.38;5052985;28;20222;-71
2023/08/06 00:31:49;;;;;;;4.10;3.70;;;16.40;99.90;;;16.17;85.70;100081.00;5053198;28;20191;-71
2023/08/06 00:34:21;;;;;;;4.50;4.10;;;16.30;99.90;;;16.15;85.33;100067.72;5054494;28;20190;-71
2023/08/06 00:36:53;;;;;;;5.67;4.30;;;16.40;99.90;;;16.16;85.83;100065.84;5057345;28;20281;-71
2023/08/06 00:39:27;;;;;;;3.70;3.40;;;16.40;99.90;;;16.19;84.91;100057.31;5057318;28;20627;-71
2023/08/06 00:41:59;;;;;;;4.33;3.90;;;16.50;99.90;;;16.18;85.33;100071.84;5057269;28;20190;-71
2023/08/06 00:44:31;;;;;;;4.30;3.90;;;16.50;99.90;;;16.17;86.18;100064.78;5057045;28;20190;-71
2023/08/06 00:47:03;;;;;;;4.57;3.50;;;16.50;99.90;;;16.15;85.01;100061.47;5057096;28;20241;-71
2023/08/06 00:49:36;;;;;;;6.33;4.10;;;16.50;99.90;;;16.12;85.21;100045.72;5057066;28;20206;-70
2023/08/06 00:52:13;;;;;;;4.10;3.80;;;16.40;99.90;;;16.10;85.85;100040.50;5056561;28;20609;-70
2023/08/06 00:54:46;;;;;;;4.60;4.10;;;16.30;99.90;;;16.08;84.75;100041.78;5057018;28;20194;-69
2023/08/06 00:57:18;;;;;;;4.50;4.10;;;16.30;99.90;;;16.07;86.25;100032.00;5056970;28;20195;-71
2023/08/06 00:59:50;;;;;;;5.37;4.30;;;16.30;99.90;;;16.04;86.00;100030.56;5057184;28;20312;-71
2023/08/06 01:02:22;;;;;;;5.43;4.80;;;16.30;99.90;;;16.04;86.39;100022.47;5056487;28;20237;-71
2023/08/06 01:04:54;;;;;;;4.53;4.13;;;16.20;99.90;;;16.05;86.27;100023.28;5056519;28;20260;-71
2023/08/06 01:07:48;;;;;;;5.17;4.23;;;16.30;99.90;;;16.09;85.81;100013.72;5056520;28;20604;-71
2023/08/06 01:10:33;;;;;;;4.97;4.43;;;16.40;99.90;;;16.04;86.67;100025.16;5056725;28;20289;-71
2023/08/06 01:13:17;;;;;;;6.00;4.10;;;16.40;99.90;;;16.03;85.32;100022.66;5056625;28;20257;-71
2023/08/06 01:15:56;;;;;;;4.40;4.00;;;16.30;99.90;;;16.04;86.20;100016.22;5056309;28;20640;-71
2023/08/06 01:18:28;;;;;;;5.20;4.30;;;16.30;99.90;;;16.04;85.67;100005.44;5056614;28;20603;-71
2023/08/06 01:21:04;;;;;;;4.70;4.17;;;16.30;99.90;;;16.00;86.25;100006.91;5056224;28;20559;-71
2023/08/06 01:23:36;;;;;;;4.53;4.13;;;16.30;99.90;;;16.00;86.81;100006.91;5056100;28;20703;-71
2023/08/06 01:26:23;;;;;;;5.33;4.83;;;16.20;99.90;;;15.99;86.79;100013.34;5056205;28;20668;-71
2023/08/06 01:29:06;;;;;;;5.13;4.63;;;16.20;99.90;;;15.96;87.10;100013.78;5055992;28;20210;-70
2023/08/06 01:31:43;;;;;;;5.60;5.03;;;16.20;99.90;;;15.95;87.01;100006.72;5056363;28;20681;-70
2023/08/06 01:34:22;;;;;;;6.20;4.87;;;16.20;99.90;;;15.93;86.59;100004.22;5055967;28;20625;-70
2023/08/06 01:36:55;;;;;;;5.83;5.30;;;16.20;99.90;;;15.90;86.04;100015.44;5056399;28;20194;-70
2023/08/06 01:39:27;;;;;;;6.10;5.50;;;16.20;99.90;;;15.90;86.58;100014.59;5056253;28;20642;-70
2023/08/06 01:41:58;;;;;;;6.40;5.43;;;16.20;99.90;;;15.87;86.59;100001.53;5055770;28;20196;-70
2023/08/06 01:44:30;;;;;;;7.40;6.00;;;16.20;99.90;;;15.84;86.95;99999.28;5055936;28;20674;-70
2023/08/06 01:47:02;;;;;;;7.27;6.67;;;16.10;99.90;;;15.83;86.49;99997.59;5055979;28;20190;-70
2023/08/06 01:49:35;;;;;;;7.50;6.80;;;16.10;99.90;;;15.83;86.52;99994.91;5056036;28;20194;-70
2023/08/06 01:52:10;;;;;;;6.80;6.10;;;16.10;99.90;;;15.81;87.03;99995.13;5055747;28;20190;-70
2023/08/06 01:54:42;;;;;;;7.37;6.67;;;16.00;99.90;;;15.80;88.12;99977.28;5055600;28;20630;-70
2023/08/06 01:57:13;;;;;;;8.20;6.70;;;16.10;99.90;;;15.78;87.23;99981.22;5055871;28;20270;-70
2023/08/06 01:59:45;;;;;;;7.13;6.40;;;16.10;99.90;;;15.81;86.85;99978.09;5055844;28;20225;-70
2023/08/06 02:02:17;;;;;;;6.60;5.90;;;16.10;99.90;;;15.80;87.67;99965.66;5055739;28;20244;-70
2023/08/06 02:04:49;;;;;;;7.33;6.30;;;16.10;99.90;;;15.81;86.91;99965.44;5055734;28;20281;-70
2023/08/06 02:07:22;;;;;;;7.83;6.30;;;16.10;99.90;;;15.82;87.26;99966.28;5055600;28;20256;-70
2023/08/06 02:09:54;;;;;;;8.97;6.87;;;16.10;99.90;;;15.78;87.63;99971.28;5055371;28;20201;-70
2023/08/06 02:12:26;;;;;;;8.07;6.80;;;16.10;99.90;;;15.79;87.34;99974.81;5055568;28;20261;-70
2023/08/06 02:14:58;;;;;;;8.80;6.90;;;16.10;99.90;;;15.78;86.43;99970.44;5055592;28;20205;-70
2023/08/06 02:17:30;;;;;;;7.73;7.00;;;16.10;99.90;;;15.69;87.12;99978.75;5055491;28;20375;-70
2023/08/06 02:20:02;;;;;;;8.33;7.20;;;15.90;99.90;;;15.67;86.11;99975.44;5056020;28;20197;-70
2023/08/06 02:22:35;;;;;;;7.83;7.00;;;15.90;99.90;;;15.64;86.59;99967.78;5055345;28;20257;-70
2023/08/06 02:25:08;;;;;;;8.87;7.23;;;15.90;99.90;;;15.64;86.67;99961.56;5055349;28;20277;-69
2023/08/06 02:27:40;;;;;;;7.50;6.63;;;15.90;99.90;;;15.67;86.52;99958.44;5055229;28;20634;-69
2023/08/06 02:30:12;;;;;;;9.07;6.87;;;16.00;99.90;;;15.65;87.15;99963.22;5055312;28;20612;-69
2023/08/06 02:32:44;;;;;;;7.00;6.30;;;16.00;99.90;;;15.63;86.47;99957.19;5055160;28;20229;-69
2023/08/06 02:35:16;;;;;;;6.73;6.03;;;15.90;99.90;;;15.62;87.18;99952.81;5055203;28;20191;-69
2023/08/06 02:37:49;;;;;;;7.03;5.97;;;15.90;99.90;;;15.61;86.94;99959.28;5055138;28;20192;-69
2023/08/06 02:40:21;;;;;;;7.43;6.20;;;15.90;99.90;;;15.61;86.57;99961.97;5055123;28;20191;-70
2023/08/06 02:42:53;;;;;;;6.40;5.87;;;15.90;99.90;;;15.55;86.31;99963.63;5054589;28;20712;-70
2023/08/06 02:45:25;;;;;;;7.53;5.70;;;15.80;99.90;;;15.51;85.28;99961.59;5054959;28;20195;-70
2023/08/06 02:47:56;;;;;;;6.10;5.50;;;15.80;99.90;;;15.45;86.04;99956.97;5054875;28;20221;-70
2023/08/06 02:50:28;;;;;;;6.67;6.03;;;15.70;99.90;;;15.43;85.99;99949.13;5054860;28;20186;-70
2023/08/06 02:53:01;;;;;;;5.93;5.33;;;15.70;99.90;;;15.41;85.71;99940.38;5054438;28;20324;-70
2023/08/06 02:55:33;;;;;;;8.23;5.80;;;15.60;99.90;;;15.44;86.08;99939.16;5054806;28;20214;-70
2023/08/06 02:58:05;;;;;;;7.17;5.70;;;15.80;99.90;;;15.38;85.28;99929.19;5053857;28;20642;-71
2023/08/06 03:00:37;;;;;;;5.93;5.33;;;15.70;99.90;;;15.38;85.68;99923.78;5054720;28;20190;-71
2023/08/06 03:03:09;;;;;;;6.60;5.90;;;15.60;99.90;;;15.38;86.48;99935.41;5054233;28;20671;-70
2023/08/06 03:05:41;;;;;;;6.50;5.90;;;15.60;99.90;;;15.34;86.58;99928.81;5054524;28;20208;-70
2023/08/06 03:08:14;;;;;;;7.80;6.13;;;15.60;99.90;;;15.32;87.14;99928.19;5054152;28;20297;-70
2023/08/06 03:10:47;;;;;;;7.40;6.30;;;15.60;99.90;;;15.30;87.12;99926.75;5054479;28;20270;-70
2023/08/06 03:13:19;;;;;;;8.20;5.40;;;15.60;99.90;;;15.30;87.29;99918.66;5054361;28;20232;-70
2023/08/06 03:15:57;;;;;;;8.17;5.97;;;15.60;99.90;;;15.28;87.70;99920.72;5054011;28;20755;-70
2023/08/06 03:18:29;;;;;;;8.20;6.00;;;15.50;99.90;;;15.24;87.72;99910.34;5054353;28;20189;-70
2023/08/06 03:21:01;;;;;;;7.17;5.60;;;15.50;99.90;;;15.24;87.48;99901.41;5054328;28;20194;-70
2023/08/06 03:23:34;;;;;;;9.07;6.10;;;15.50;99.90;;;15.22;86.67;99898.94;5054204;28;20232;-71
2023/08/06 03:26:06;;;;;;;7.90;5.77;;;15.50;99.90;;;15.22;87.03;99893.56;5054270;28;20186;-70
2023/08/06 03:28:38;;;;;;;7.90;6.80;;;15.50;99.90;;;15.21;87.54;99888.38;5054185;28;20624;-71
2023/08/06 03:31:10;;;;;;;8.13;7.33;;;15.50;99.90;;;15.18;87.20;99891.47;5054125;28;20198;-70
2023/08/06 03:33:42;;;;;;;8.30;7.47;;;15.50;99.90;;;15.17;87.28;99876.38;5053730;28;20226;-70
2023/08/06 03:36:14;;;;;;;8.37;7.07;;;15.50;99.90;;;15.16;87.38;99882.78;5053985;28;20217;-70
2023/08/06 03:38:47;;;;;;;7.47;6.87;;;15.40;99.90;;;15.15;87.51;99881.13;5053973;28;20191;-69
2023/08/06 03:41:19;;;;;;;8.43;7.53;;;15.40;99.90;;;15.10;87.32;99884.44;5054050;28;20197;-71
2023/08/06 03:43:51;;;;;;;8.27;7.40;;;15.40;99.90;;;15.10;87.58;99889.03;5053848;28;20230;-71
2023/08/06 03:46:23;;;;;;;9.80;7.70;;;15.40;99.90;;;15.10;87.32;99884.44;5053592;28;20196;-71
2023/08/06 03:48:56;;;;;;;9.17;7.73;;;15.40;99.90;;;15.12;87.52;99889.63;5053788;28;20210;-71
2023/08/06 03:51:28;;;;;;;9.10;8.30;;;15.40;99.90;;;15.13;87.33;99894.84;5053468;28;20615;-71
2023/08/06 03:54:01;;;;;;;8.53;7.73;;;15.50;99.90;;;15.12;87.56;99893.16;5053328;28;20321;-71
2023/08/06 03:56:33;;;;;;;10.80;8.10;;;15.50;99.90;;;15.11;86.80;99891.50;5053705;28;20278;-71
2023/08/06 03:59:05;;;;;;;9.53;8.30;;;15.50;99.90;;;15.11;87.26;99887.97;5053354;28;20659;-71
2023/08/06 04:01:37;;;;;;;9.00;7.83;;;15.40;99.90;;;15.09;87.32;99882.81;5053262;28;20666;-71
2023/08/06 04:04:09;;;;;;;9.60;7.43;;;15.40;99.90;;;15.08;87.89;99883.84;5053542;28;20257;-71
2023/08/06 04:06:41;;;;;;;8.07;7.27;;;15.40;99.90;;;15.06;87.66;99877.00;5053565;28;20420;-71
2023/08/06 04:09:14;;;;;;;9.30;7.77;;;15.40;99.90;;;15.06;88.28;99883.22;5052516;28;20301;-71
2023/08/06 04:11:46;;;;;;;7.73;7.03;;;15.40;99.90;;;15.07;88.16;99874.09;5053503;28;20332;-71
2023/08/06 04:14:18;;;;;;;7.90;7.10;;;15.40;99.90;;;15.06;88.14;99877.00;5053481;28;20195;-71
2023/08/06 04:16:50;;;;;;;7.83;7.13;;;15.40;99.90;;;15.09;89.10;99881.97;5053584;28;20272;-71
2023/08/06 04:19:22;;;;;;;9.37;8.53;;;15.40;99.90;;;15.08;89.02;99885.69;5053367;28;20269;-71
2023/08/06 04:21:53;;;;;;;8.90;8.10;;;15.40;99.90;;;15.08;88.97;99885.69;5053313;28;20652;-71
2023/08/06 04:24:27;;;;;;;8.73;7.77;;;15.40;99.90;;;15.08;89.59;99888.41;5053309;28;20194;-71
2023/08/06 04:26:59;;;;;;;10.20;9.20;;;15.40;99.90;;;15.07;90.24;99889.41;5053326;28;20183;-71
2023/08/06 04:29:31;;;;;;;8.77;7.97;;;15.40;99.90;;;15.07;89.70;99886.72;5053246;28;20301;-71
2023/08/06 04:32:05;;;;;;;11.43;9.17;;;15.40;99.90;;;15.05;89.54;99880.72;5053177;28;20605;-70
2023/08/06 04:34:37;;;;;;;9.60;8.70;;;15.40;99.90;;;15.06;89.71;99883.22;5053194;28;20218;-70
2023/08/06 04:37:10;;;;;;;10.57;9.47;;;15.40;99.90;;;15.06;90.70;99883.22;5053256;28;20218;-70
2023/08/06 04:39:43;;;;;;;12.97;9.70;;;15.40;99.90;;;15.07;91.08;99873.25;5053153;28;20221;-70
2023/08/06 04:42:15;;;;;;;9.40;8.50;;;15.40;99.90;;;15.07;91.25;99875.94;5053121;28;20261;-70
2023/08/06 04:44:46;;;;;;;13.57;9.83;;;15.40;99.90;;;15.07;92.11;99873.25;5053114;28;20285;-70
2023/08/06 04:47:19;;;;;;;10.70;9.60;;;15.40;99.90;;;15.04;92.39;99879.06;5052888;28;20715;-70
2023/08/06 04:49:50;;;;;;;10.30;9.07;;;15.40;99.90;;;15.06;92.48;99885.94;5053018;28;20211;-70
2023/08/06 04:52:22;;;;;;;11.13;9.40;;;15.40;99.90;;;15.05;92.78;99886.13;5052826;28;20272;-70
2023/08/06 04:54:56;;;;;;;11.07;9.90;;;15.40;99.90;;;15.05;92.83;99880.72;5052764;28;20198;-70
2023/08/06 04:57:28;;;;;;;10.30;9.20;;;15.40;99.90;;;15.05;92.16;99886.13;5053068;28;20187;-70
2023/08/06 05:00:00;;;;;;;11.20;9.73;;;15.40;99.90;;;15.03;92.67;99882.81;5053040;28;20237;-70
2023/08/06 05:02:34;;;;;;;10.53;9.53;;;15.40;99.90;;;15.01;92.33;99874.09;5052892;28;20233;-70
2023/08/06 05:05:06;;;;;;;11.93;9.50;;;15.40;99.90;;;15.01;92.73;99880.31;5052960;28;20202;-70
2023/08/06 05:07:38;;;;;;;10.90;9.50;;;15.40;99.90;;;15.03;92.28;99872.03;5052617;28;20541;-70
2023/08/06 05:10:13;;;;;;;9.90;8.90;;;15.40;99.90;;;15.03;92.72;99864.78;5052840;28;20210;-70
2023/08/06 05:12:45;;;;;;;11.47;10.37;;;15.40;99.90;;;15.01;93.57;99866.00;5052836;28;20268;-70
2023/08/06 05:15:16;;;;;;;11.37;9.67;;;15.40;99.90;;;15.02;93.32;99864.97;5052851;28;20294;-70
2023/08/06 05:17:49;;;;;;;9.97;8.97;;;15.40;99.90;;;14.97;93.20;99856.69;5052560;28;20330;-70
2023/08/06 05:20:21;;;;;;;10.10;9.10;;;15.40;99.90;;;14.98;93.83;99858.34;5053736;28;20183;-70
2023/08/06 05:22:53;;;;;;;10.00;9.00;;;15.30;99.90;;;14.99;93.48;99851.94;5056348;28;20237;-70
2023/08/06 05:25:26;;;;;;;10.67;9.67;;;15.40;99.90;;;15.01;93.34;99860.63;5056559;28;20244;-70
2023/08/06 05:27:58;;;;;;;10.80;8.93;;;15.40;99.90;;;15.03;92.97;99867.47;5056153;28;20237;-70
2023/08/06 05:30:30;;;;;;;12.50;10.63;;;15.40;99.90;;;15.03;93.73;99872.88;5056330;28;20272;-70
2023/08/06 05:33:03;;;;;;;16.10;11.40;;;15.40;99.90;;;15.00;94.76;99875.16;5055746;28;20654;-70
2023/08/06 05:35:35;;;;;;;11.73;10.17;;;15.30;99.90;;;14.99;94.08;99868.94;5056342;28;20198;-70
2023/08/06 05:38:07;;;;;;;12.70;11.40;;;15.40;99.90;;;14.98;94.72;99863.75;5055907;28;20763;-70
2023/08/06 05:40:40;;;;;;;12.20;10.43;;;15.40;99.90;;;14.99;95.03;99873.50;5056190;28;20229;-70
2023/08/06 05:43:12;;;;;;;16.13;12.00;;;15.30;99.90;;;14.93;93.96;99871.63;5056099;28;20253;-70
2023/08/06 05:45:47;;;;;;;11.93;10.73;;;15.30;99.90;;;14.96;95.31;99876.59;5056098;28;20190;-70
2023/08/06 05:48:19;;;;;;;13.00;10.83;;;15.30;99.90;;;14.99;94.81;99876.19;5056048;28;20286;-70
2023/08/06 05:50:51;;;;;;;13.10;11.00;;;15.40;99.90;;;15.00;94.84;99878.66;5055927;28;20297;-70
2023/08/06 05:53:23;;;;;;;12.27;10.73;;;15.40;99.90;;;15.02;94.38;99882.00;5055545;28;20242;-70
2023/08/06 05:55:56;;;;;;;12.00;10.73;;;15.40;99.90;;;15.02;94.55;99871.19;5055602;28;20636;-70
2023/08/06 05:58:29;;;;;;;11.60;10.40;;;15.40;99.90;;;15.01;94.08;99871.41;5055547;28;20679;-70
2023/08/06 06:01:01;;;;;;;12.33;10.93;;;15.40;99.90;;;15.03;94.83;99872.03;5055497;28;20649;-70
2023/08/06 06:03:33;;;;;;;11.60;10.40;;;15.40;99.90;;;15.05;94.92;99880.72;5055436;28;20699;-70
2023/08/06 06:06:05;;;;;;;14.27;10.47;;;15.50;99.90;;;15.06;95.27;99877.00;5055741;28;20315;-70
2023/08/06 06:08:39;;;;;;;12.00;10.73;;;15.50;99.90;;;15.08;95.27;99874.91;5055681;28;20285;-70
2023/08/06 06:11:12;;;;;;;12.33;10.13;;;15.50;99.90;;;15.08;94.80;99874.91;5055247;28;20676;-70
2023/08/06 06:13:44;;;;;;;11.73;10.53;;;15.50;99.90;;;15.09;95.75;99874.72;5055543;28;20313;-70
2023/08/06 06:16:16;;;;;;;11.33;10.23;;;15.50;99.90;;;15.08;95.34;99874.91;5055164;28;20662;-70
2023/08/06 06:18:48;;;;;;;12.17;10.20;;;15.50;99.90;;;15.11;95.73;99871.78;5055489;28;20194;-70
2023/08/06 06:21:20;;;;;;;11.47;10.17;;;15.50;99.90;;;15.11;95.61;99863.72;5055467;28;20193;-70
2023/08/06 06:23:52;;;;;;;11.47;9.87;;;15.50;99.90;;;15.11;96.26;99859.16;5055300;28;20323;-70
2023/08/06 06:26:25;;;;;;;10.10;9.10;;;15.50;99.90;;;15.13;95.75;99865.19;5055328;28;20198;-70
2023/08/06 06:28:57;;;;;;;12.67;9.50;;;15.60;99.90;;;15.16;95.67;99866.63;5055014;28;20700;-70
2023/08/06 06:31:29;;;;;;;12.97;9.03;;;15.60;99.90;;;15.14;95.91;99855.19;5054081;28;20699;-70
2023/08/06 06:34:01;;;;;;;9.67;8.77;;;15.60;99.90;;;15.16;96.42;99855.84;5055143;28;20230;-70
2023/08/06 06:36:32;;;;;;;8.50;7.70;;;15.60;99.90;;;15.16;96.13;99855.84;5055185;28;20273;-70
2023/08/06 06:39:04;;;;;;;8.83;8.00;;;15.60;99.90;;;15.19;95.96;99858.09;5054796;28;20205;-70
2023/08/06 06:41:37;;;;;;;13.37;8.17;;;15.60;99.90;;;15.21;96.45;99850.63;5055023;28;20597;-70
2023/08/06 06:44:10;;;;;;;8.37;7.57;;;15.70;99.90;;;15.20;95.88;99851.69;5054656;28;20260;-70
2023/08/06 06:46:42;;;;;;;10.13;7.93;;;15.60;99.90;;;15.13;95.38;99849.00;5054999;28;20233;-70
2023/08/06 06:49:14;;;;;;;8.60;7.37;;;15.60;99.90;;;15.18;95.17;99864.53;5054929;28;20194;-70
2023/08/06 06:51:46;;;;;;;10.20;7.43;;;15.60;99.90;;;15.22;95.91;99860.38;5054840;28;20206;-70
2023/08/06 06:54:18;;;;;;;8.13;6.57;;;15.60;99.90;;;15.24;95.72;99863.66;5055853;28;20245;-70
2023/08/06 06:56:51;;;;;;;8.10;6.07;;;15.70;99.90;;;15.23;95.22;99860.16;5054833;28;20212;-70
2023/08/06 06:59:23;;;;;;;6.93;5.50;;;15.70;99.90;;;15.26;95.15;99858.91;5054750;28;20289;-70
2023/08/06 07:01:55;;;;;;;6.23;5.13;;;15.70;99.90;;;15.30;95.02;99860.16;5054305;28;20657;-70
2023/08/06 07:04:27;;;;;;;7.90;5.80;;;15.80;99.90;;;15.31;94.90;99853.69;5054689;28;20194;-70
2023/08/06 07:06:59;;;;;;;6.63;5.50;;;15.80;99.90;;;15.33;94.62;99845.41;5054621;28;20222;-70
2023/08/06 07:09:31;;;;;;;8.00;6.07;;;15.80;99.90;;;15.37;95.93;99843.94;5054578;28;20282;-71
2023/08/06 07:12:04;;;;;;;7.77;6.30;;;15.90;99.90;;;15.39;96.25;99848.06;5054424;28;20252;-71
2023/08/06 07:14:41;;;;;;;7.37;6.40;;;15.90;99.90;;;15.42;96.36;99844.94;5054432;28;20287;-71
2023/08/06 07:17:13;;;;;;;8.23;5.47;;;15.90;99.90;;;15.45;96.90;99841.00;5054413;28;20194;-71
2023/08/06 07:19:45;;;;;;;6.13;4.67;;;15.90;99.90;;;15.45;95.54;99843.69;5054332;28;20289;-71
2023/08/06 07:22:17;;;;;;;8.33;5.27;;;15.90;99.90;;;15.46;95.42;99845.34;5054207;28;20269;-71
2023/08/06 07:24:49;;;;;;;4.73;4.33;;;16.00;99.90;;;15.49;95.72;99840.38;5054246;28;20286;-71
2023/08/06 07:27:22;;;;;;;6.57;4.17;;;16.00;99.90;;;15.50;95.53;99844.75;5054218;28;20282;-71
2023/08/06 07:29:54;;;;;;;5.87;4.67;;;16.00;99.90;;;15.55;96.51;99844.09;5054081;28;20187;-71
2023/08/06 07:32:26;;;;;;;6.03;4.70;;;16.00;99.90;;;15.56;95.92;99838.50;5053717;28;20663;-71
2023/08/06 07:35:00;;;;;;;6.03;4.83;;;16.10;99.90;;;15.61;96.97;99833.31;5053743;28;20670;-71
2023/08/06 07:37:32;;;;;;;4.87;4.40;;;16.10;99.90;;;15.64;95.16;99829.34;5053709;28;20187;-71
2023/08/06 07:40:04;;;;;;;5.17;4.40;;;16.10;99.90;;;15.69;95.42;99833.03;5054129;28;20195;-71
2023/08/06 07:42:37;;;;;;;5.40;4.27;;;16.20;99.90;;;15.73;95.42;99826.16;5053693;28;20262;-71
2023/08/06 07:45:13;;;;;;;5.87;4.17;;;16.30;99.90;;;15.83;95.28;99830.25;5053596;28;20640;-71
2023/08/06 07:47:44;;;;;;;4.00;3.60;;;16.40;99.90;;;15.89;93.24;99834.81;5053847;28;20285;-71
2023/08/06 07:50:17;;;;;;;5.77;3.63;;;16.40;99.90;;;15.94;92.77;99829.56;5053439;28;20186;-71
2023/08/06 07:52:49;;;;;;;3.57;3.10;;;16.50;99.90;;;15.97;93.99;99834.53;5053260;28;20611;-71
2023/08/06 07:55:21;;;;;;;3.57;3.27;;;16.50;99.90;;;16.04;92.95;99835.34;5053775;28;20190;-71
2023/08/06 07:57:54;;;;;;;4.73;3.60;;;16.60;99.90;;;16.08;93.80;99829.28;5053718;28;20273;-71
2023/08/06 08:00:26;;;;;;;4.63;3.53;;;16.60;99.90;;;16.16;95.21;99841.69;5053335;28;20656;-71
2023/08/06 08:02:58;;;;;;;3.80;3.20;;;16.70;99.90;;;16.21;95.32;99833.75;5053574;28;20226;-71
2023/08/06 08:05:31;;;;;;;4.20;3.90;;;16.70;99.90;;;16.30;95.86;99837.84;5053569;28;20241;-71
2023/08/06 08:08:02;;;;;;;4.27;3.87;;;16.80;99.90;;;16.34;95.41;99839.06;5053567;28;20621;-71
2023/08/06 08:10:34;;;;;;;4.10;3.70;;;16.90;99.90;;;16.36;94.79;99837.00;5053151;28;20190;-71
2023/08/06 08:13:07;;;;;;;4.93;3.40;;;16.90;99.90;;;16.41;96.13;99823.63;5053392;28;20265;-71
2023/08/06 08:15:39;;;;;;;4.07;3.67;;;17.00;99.90;;;16.44;94.26;99828.59;5053164;28;20191;-70
2023/08/06 08:18:11;;;;;;;4.10;3.07;;;17.00;99.90;;;16.49;93.84;99827.94;5053092;28;20226;-70
2023/08/06 08:20:44;;;;;;;2.73;2.53;;;17.00;99.90;;;16.53;93.47;99830.00;5053055;28;20647;-69
2023/08/06 08:23:16;;;;;;;2.90;2.50;;;17.10;99.90;;;16.58;92.04;99826.63;5053322;28;20309;-70
2023/08/06 08:25:48;;;;;;;2.83;2.63;;;17.20;99.90;;;16.60;87.58;99827.25;5053436;28;20233;-70
2023/08/06 08:28:21;;;;;;;3.50;3.20;;;17.10;99.90;;;16.66;90.02;99827.19;5053329;28;20281;-70
2023/08/06 08:30:53;;;;;;;2.83;2.60;;;17.20;99.90;;;16.72;90.39;99825.47;5053261;28;20294;-70
2023/08/06 08:33:25;;;;;;;2.93;2.30;;;17.30;99.90;;;16.78;90.48;99829.19;5053291;28;20291;-70
2023/08/06 08:35:57;;;;;;;6.53;3.60;;;17.30;99.90;;;16.83;90.54;99813.09;5053309;28;20297;-70
2023/08/06 08:38:29;;;;;;;4.63;3.27;;;17.40;99.90;;;16.92;90.06;99811.78;5053293;28;20282;-70
2023/08/06 08:41:01;;;;;;;4.20;3.80;;;17.50;99.90;;;16.99;90.19;99815.22;5052955;28;20609;-70
2023/08/06 08:43:34;;;;;;;4.93;4.20;;;17.60;99.90;;;17.02;88.66;99804.78;5053201;28;20268;-70
2023/08/06 08:46:12;;;;;;;3.40;2.80;;;17.60;99.90;;;17.06;88.75;99805.16;5053230;28;20616;-70
2023/08/06 08:48:46;;;;;;;3.57;3.27;;;17.60;99.90;;;17.11;86.89;99814.28;5053193;28;20189;-70
2023/08/06 08:51:24;;;;;;;3.47;3.10;;;17.70;99.90;;;17.17;88.23;99812.53;5053079;28;20304;-70
2023/08/06 08:53:58;;;;;;;3.73;2.77;;;17.80;99.90;;;17.23;87.41;99811.63;5052693;28;20335;-70
2023/08/06 08:56:30;;;;;;;5.40;2.73;;;17.80;99.90;;;17.24;85.41;99808.72;5056263;28;20185;-70
2023/08/06 08:59:03;;;;;;;3.10;2.90;;;17.80;99.90;;;17.30;85.87;99809.66;5057036;28;20194;-70
2023/08/06 09:01:35;;;;;;;3.30;2.47;;;17.90;99.90;;;17.35;82.99;99807.13;5057857;28;20213;-70
2023/08/06 09:04:10;;;;;;;3.50;2.37;;;17.90;99.90;;;17.39;80.25;99811.03;5056924;28;20646;-70
2023/08/06 09:06:47;;;;;;;4.03;2.87;;;18.00;99.90;;;17.45;82.93;99804.72;5056921;28;20267;-69
2023/08/06 09:09:26;;;;;;;3.13;2.83;;;18.00;99.90;;;17.58;85.18;99803.72;5056873;28;20186;-69
2023/08/06 09:12:02;;;;;;;3.63;3.30;;;18.10;99.90;;;17.64;84.55;99803.63;5056427;28;20702;-69
2023/08/06 09:14:36;;;;;;;3.10;2.90;;;18.20;99.90;;;17.72;81.45;99806.03;5056479;28;20281;-69
2023/08/06 09:17:11;;;;;;;4.30;3.90;;;18.30;99.90;;;17.77;81.98;99802.66;5056724;28;20214;-69
2023/08/06 09:19:48;;;;;;;3.37;2.63;;;18.30;99.90;;;17.80;78.94;99799.50;5056683;28;20197;-70
2023/08/06 09:22:20;;;;;;;3.00;2.47;;;18.40;99.90;;;17.87;78.29;99800.22;5056228;28;20765;-70
2023/08/06 09:24:52;;;;;;;4.80;2.80;;;18.40;99.90;;;17.93;82.12;99798.47;5056587;28;20190;-70
2023/08/06 09:27:26;;;;;;;2.80;2.60;;;18.50;99.90;;;17.99;83.34;99797.53;5056570;28;20244;-72
2023/08/06 09:29:59;;;;;;;3.10;2.80;;;18.60;99.90;;;18.04;83.15;99800.38;5056499;28;20290;-73
2023/08/06 09:32:45;;;;;;;2.70;2.50;;;18.60;99.90;;;18.11;81.37;99798.41;5056028;28;20693;-73
2023/08/06 09:35:20;;;;;;;2.73;2.50;;;18.70;99.90;;;18.16;82.46;99803.94;5056374;28;20195;-72
2023/08/06 09:37:52;;;;;;;5.47;4.83;;;18.70;99.90;;;18.27;80.13;99797.72;5056031;28;20636;-72
2023/08/06 09:40:33;;;;;;;2.80;2.50;;;18.80;99.90;;;18.34;76.22;99801.16;5056315;28;20270;-72
2023/08/06 09:43:05;;;;;;;2.50;2.30;;;18.90;99.90;;;18.45;76.89;99800.34;5056156;28;20230;-73
2023/08/06 09:45:40;;;;;;;3.17;2.57;;;19.00;99.90;;;18.50;76.27;99792.38;5055917;28;20652;-73
2023/08/06 09:48:13;;;;;;;3.33;2.67;;;19.10;99.90;;;18.53;74.25;99807.31;5056210;28;20243;-72
2023/08/06 09:50:47;;;;;;;3.13;2.83;;;19.10;99.90;;;18.62;76.78;99800.50;5055863;28;20668;-72
2023/08/06 09:53:20;;;;;;;3.40;2.60;;;19.20;99.90;;;18.76;75.83;99806.53;5055514;28;20280;-72
2023/08/06 09:55:52;;;;;;;3.23;2.93;;;19.30;99.90;;;18.81;77.58;99802.03;5055739;28;20556;-73
2023/08/06 09:58:27;;;;;;;3.60;2.70;;;19.40;99.90;;;18.88;76.29;99802.75;5055680;28;20191;-72
2023/08/06 10:01:02;;;;;;;2.53;2.33;;;19.50;99.90;;;18.87;76.93;99803.78;5055870;28;20230;-72
2023/08/06 10:03:37;;;;;;;3.53;2.60;;;19.40;99.90;;;18.90;73.55;99797.91;5055794;28;20240;-73
2023/08/06 10:06:10;;;;;;;2.90;2.70;;;19.40;99.90;;;18.93;73.15;99796.63;5055821;28;20200;-73
2023/08/06 10:08:42;;;;;;;2.90;2.70;;;19.40;99.90;;;18.96;73.69;99785.28;5055812;28;20232;-73
2023/08/06 10:11:15;;;;;;;2.73;2.53;;;19.50;99.90;;;19.00;75.18;99787.28;5055767;28;20194;-73
2023/08/06 10:13:48;;;;;;;2.83;2.50;;;19.50;99.90;;;19.04;68.50;99798.50;5055641;28;20228;-72
2023/08/06 10:16:23;;;;;;;3.13;2.50;;;19.50;99.90;;;19.24;71.45;99779.94;5055285;28;20289;-72
2023/08/06 10:18:56;;;;;;;3.90;2.60;;;19.80;99.90;;;19.35;70.91;99775.53;5055568;28;20197;-72
2023/08/06 10:21:30;;;;;;;2.80;2.60;;;19.90;99.90;;;19.38;70.73;99775.88;5055457;28;20237;-73
2023/08/06 10:24:03;;;;;;;2.53;2.33;;;19.90;99.90;;;19.46;69.53;99766.53;5055098;28;20761;-73
2023/08/06 10:26:35;;;;;;;5.30;3.10;;;20.00;99.90;;;19.59;72.13;99764.38;5055378;28;20194;-73
2023/08/06 10:29:36;;;;;;;5.90;4.60;;;20.10;99.90;;;19.62;71.42;99758.44;5055426;28;20282;-73
2023/08/06 10:32:09;;;;;;;3.47;2.47;;;20.20;99.90;;;19.78;66.22;99758.75;5054880;28;20350;-73
2023/08/06 10:34:56;;;;;;;8.03;7.03;;;20.20;99.90;;;19.90;71.25;99754.09;5055250;28;20201;-73
2023/08/06 10:37:38;;;;;;;3.40;2.90;;;20.50;99.90;;;20.10;70.87;99757.97;5055243;28;20201;-72
2023/08/06 10:40:12;;;;;;;5.50;3.60;;;20.70;99.90;;;20.19;67.63;99750.25;5055159;28;20289;-73